http://www.ohio.gov http://www.dot.state.oh.us
W W W . B U C K E Y E T R A F F I C . O R G

1-SR49 @ SR249 (200000) Status Air Temp Sfc Temp Sub Temp Dew Temp Wind Precip Traffic Updated
Sensor [A]: Atmospheric - 56.7 - - 55.9 1.2 / NW - - 7/4/2015 2:44:29 AM
Sensor [0]: SR49 NB Lane Wet - 82.4 - - - - 0 / 9.9 7/4/2015 2:44:29 AM
Sensor [1]: SR 249 EB Lane Wet - 80.6 - - - - 0 / 9.9 7/4/2015 2:44:29 AM
2-SR-309 @ SR-235 (200001) Status Air Temp Sfc Temp Sub Temp Dew Temp Wind Precip Traffic Updated
Sensor [A]: Atmospheric - 56.8 - - 52.3 1.2 / N - - 7/4/2015 2:42:28 AM
Sensor [0]: SR309 EB Dry - 59.9 82.4 - - - - 7/4/2015 2:42:28 AM
Sensor [1]: SR235 SB Dry - 73.4 - - - - - 7/4/2015 2:42:28 AM
3-US24 @ Indiana Line (200002) Status Air Temp Sfc Temp Sub Temp Dew Temp Wind Precip Traffic Updated
Sensor [A]: Atmospheric - 57.6 - - 55.2 1.9 / NE - - 7/4/2015 2:44:39 AM
Sensor [0]: EB Driving Dry - 68.0 77.0 - - - 0 / 9.9 7/4/2015 2:44:39 AM
Sensor [1]: WB Driving Dry - 68.0 - - - - 0 / 9.9 7/4/2015 2:44:39 AM
4-US224 @ SR190 (200003) Status Air Temp Sfc Temp Sub Temp Dew Temp Wind Precip Traffic Updated
Sensor [A]: Atmospheric - 55.9 - - 55.2 1.2 / W - - 7/4/2015 2:39:19 AM
Sensor [0]: Eastbound Driving Lane Dry - 58.1 - - - - 1 / 65.2 7/4/2015 2:39:19 AM
5- US30 @ SR49 North (200004) Status Air Temp Sfc Temp Sub Temp Dew Temp Wind Precip Traffic Updated
Sensor [A]: Atmospheric - 59.0 - - 58.1 - - - 7/4/2015 2:49:11 AM
Sensor [0]: US30 Westbound Driving Dry - 68.0 - - - - 0 / 9.9 7/4/2015 2:49:11 AM
Sensor [1]: US30 Eastbound Driving Dry - 68.0 - - - - 0 / 9.9 7/4/2015 2:49:11 AM
6-US 30/23 @ E. Wyandot Ave. (MM 16.3) (200005) Status Air Temp Sfc Temp Sub Temp Dew Temp Wind Precip Traffic Updated
Sensor [A]: Atmospheric - 58.3 - - 53.8 - - - 7/4/2015 2:49:31 AM
Sensor [3]: US23 SB Driving Lane Dry - 69.8 - - - - 0 / 9.9 7/4/2015 2:49:31 AM
7-US30 Bypass @ SR4 (200006) Status Air Temp Sfc Temp Sub Temp Dew Temp Wind Precip Traffic Updated
Sensor [A]: Atmospheric - 56.5 - - 55.4 - - - 7/4/2015 2:39:45 AM
Sensor [0]: US30 East Bound Driving Lane Dry - 69.1 - - - - 20 / 60.9 7/4/2015 2:39:45 AM
Sensor [1]: US30 West Bound Driving Lane Dry - 67.5 - - - - 80 / 158.4 7/4/2015 2:39:45 AM
8-Huron County Garage (200007) Status Air Temp Sfc Temp Sub Temp Dew Temp Wind Precip Traffic Updated
Sensor [A]: Atmospheric - 55.9 - - 55.8 0.6 / NW - - 7/4/2015 2:40:43 AM
Sensor [0]: US250 NB Lane Dry - 68.0 - - - - 0 / 9.9 7/4/2015 2:40:43 AM
Sensor [1]: US250 SB Lane Dry - 68.0 - - - - 0 / 9.9 7/4/2015 2:40:43 AM
9-I77 MM 109 @ Belden Village (200008) Status Air Temp Sfc Temp Sub Temp Dew Temp Wind Precip Traffic Updated
Sensor [A]: Atmospheric - 62.8 - - 54.5 0.6 / E - - 7/4/2015 2:45:09 AM
Sensor [0]: Ramp Bridge over I-77 Dry - 78.8 78.8 - - - 1 / 9.9 7/4/2015 2:45:09 AM
Sensor [1]: Bridgedeck over I-77 Dry - 71.6 - - - - 0 / 9.9 7/4/2015 2:45:09 AM
10-SR5@SR45 (200009) Status Air Temp Sfc Temp Sub Temp Dew Temp Wind Precip Traffic Updated
Sensor [A]: Atmospheric - 60.8 - - 53.1 1.2 / N - - 7/4/2015 2:41:47 AM
Sensor [0]: EB Driving Dry - 66.2 - - - - - 7/4/2015 2:41:47 AM
Sensor [1]: SR5 EB Passing Dry - 66.2 - - - - - 7/4/2015 2:41:47 AM
Sensor [2]: SR5 WB Passing Bridgedeck Dry - 65.3 - - - - - 7/4/2015 2:41:47 AM
Sensor [3]: SR5 EB passing Bridgedeck Dry - 71.6 - - - - - 7/4/2015 2:41:47 AM
11-SR36@SR206 (200010) Status Air Temp Sfc Temp Sub Temp Dew Temp Wind Precip Traffic Updated
Sensor [A]: Atmospheric - 73.9 - - 60.4 3.1 / NE - - 7/3/2015 4:01:01 PM
Sensor [0]: US36 EB Dry - 105.8 - - - - - 7/3/2015 4:01:01 PM
12- US 33 @ MM 11.5 (200011) Status Air Temp Sfc Temp Sub Temp Dew Temp Wind Precip Traffic Updated
Sensor [A]: Atmospheric - 61.3 - - 61.2 0.6 / NW - - 7/4/2015 2:43:02 AM
Sensor [0]: US33 EB Driving Dry - 65.7 73.6 - - - - 7/4/2015 2:43:02 AM
Sensor [1]: US33 WB Driving Lane Bridgedeck Dry - 64.2 - - - - - 7/4/2015 2:43:02 AM
13-Knox County Garage (200012) Status Air Temp Sfc Temp Sub Temp Dew Temp Wind Precip Traffic Updated
Sensor [A]: Atmospheric - 79.9 - - 69.6 1.2 / N - - 6/16/2015 1:51:45 PM
14-SR 13 @ TR 37 Sheridan Rd (MM 32.6) (200013) Status Air Temp Sfc Temp Sub Temp Dew Temp Wind Precip Traffic Updated
Sensor [A]: Atmospheric - 63.7 - - 61.7 3.1 / NW - - 7/4/2015 2:46:09 AM
Sensor [0]: SR13 Eastbound Wet - 66.2 - - - - - 7/4/2015 2:46:09 AM
Sensor [1]: SR13 Westbound Dry - 66.2 - - - - - 7/4/2015 2:46:09 AM
15-US35 @ SR62 (200014) Status Air Temp Sfc Temp Sub Temp Dew Temp Wind Precip Traffic Updated
Sensor [A]: Atmospheric - 63.5 - - 47.7 2.5 / NW - - 7/4/2015 2:37:25 AM
Sensor [0]: US35 EB Driving Trace Moisture - 65.3 - - - - - 7/4/2015 2:37:25 AM
Sensor [1]: US35 WB Driving Wet - 63.5 - - - - - 7/4/2015 2:37:25 AM
Sensor [2]: SR62 NB Bridgedeck Trace Moisture - 61.7 - - - - - 7/4/2015 2:37:25 AM
16-SR-752 @ 1.3 Pickaway County (200015) Status Air Temp Sfc Temp Sub Temp Dew Temp Wind Precip Traffic Updated
Sensor [A]: Atmospheric - 63.0 - - 63.0 - - - 7/4/2015 2:40:39 AM
17-US23 @ E. Fairground Road Overpass (200016) Status Air Temp Sfc Temp Sub Temp Dew Temp Wind Precip Traffic Updated
Sensor [A]: Atmospheric - 57.7 - - 55.4 1.9 / N - - 7/4/2015 2:39:57 AM
Sensor [0]: US23 NorthBound Passing Approach Dry - 67.3 - - - - - 7/4/2015 2:39:57 AM
Sensor [1]: US23 SouthBound Passing Bridgedeck Trace Moisture - 66.4 76.6 - - - 34 / 57.2 7/4/2015 2:39:57 AM
18-US33 @ SR739 (200017) Status Air Temp Sfc Temp Sub Temp Dew Temp Wind Precip Traffic Updated
Sensor [A]: Atmospheric - 60.3 - - 56.8 1.9 / NE - - 7/4/2015 2:41:44 AM
Sensor [2]: US33 WB Driving Dry - 66.2 - - - - - 7/4/2015 2:41:44 AM
Sensor [3]: SR739 NB Bridgedeck Dry - 68.0 - - - - - 7/4/2015 2:41:44 AM
Sensor [4]: US33 EB Driving Shade Dry - 68.0 - - - - - 7/4/2015 2:41:44 AM
19-US 68 near Clark Co. Line (MM 0.7) (200018) Status Air Temp Sfc Temp Sub Temp Dew Temp Wind Precip Traffic Updated
Sensor [A]: Atmospheric - 60.1 - - 60.4 3.1 / N - - 7/4/2015 2:45:57 AM
Sensor [0]: US68 SB Driving Lane No Report - - - - - - - 7/4/2015 2:45:57 AM
Sensor [1]: US68 NB Driving Lane Dry - 67.6 - - - - - 7/4/2015 2:45:57 AM
Sensor [2]: US68 NB Driving Lane Bridgedeck Dry - 66.9 - - - - - 7/4/2015 2:45:57 AM
20-SR 502 @ CR 30 Palestine-Union City Rd (MM 3.3) (200019) Status Air Temp Sfc Temp Sub Temp Dew Temp Wind Precip Traffic Updated
Sensor [A]: Atmospheric - 63.5 - - 71.4 0.6 / S - - 7/4/2015 2:48:30 AM
Sensor [0]: SR502 EB Lane Dry - 73.4 80.6 - - - 0 / 9.9 7/4/2015 2:48:30 AM
21-US33 @ SR540 (200020) Status Air Temp Sfc Temp Sub Temp Dew Temp Wind Precip Traffic Updated
Sensor [A]: Atmospheric - 59.0 - - 51.6 1.9 / NW - - 7/4/2015 1:55:25 AM
Sensor [0]: US-33 East Bound Driving Lane Dry - 68.0 77.0 - - - 3 / 55.9 7/4/2015 1:55:25 AM
Sensor [1]: US-33 West Bound Passing Lane Dry - 186.8 - - - - 0 / 52.2 7/4/2015 1:55:25 AM
22-SR 29 @ Hickory Branch Creek (MM 1.6) (200021) Status Air Temp Sfc Temp Sub Temp Dew Temp Wind Precip Traffic Updated
Sensor [A]: Atmospheric - 62.1 - - 56.7 1.2 / N - - 7/4/2015 2:42:00 AM
Sensor [0]: SR29 EB Lane Dry - 70.7 78.6 - - - 0 / 5.0 7/4/2015 2:42:00 AM
23-SR41 @ SR136 Adams County (200022) Status Air Temp Sfc Temp Sub Temp Dew Temp Wind Precip Traffic Updated
Sensor [A]: Atmospheric - 65.8 - - 66.2 - - - 7/4/2015 2:38:06 AM
Sensor [0]: SR136 NB Lane Dry - 68.0 76.1 - - - - 7/4/2015 2:38:06 AM
Sensor [1]: SR136 SB Lane Dry - 68.9 - - - - - 7/4/2015 2:38:06 AM
24-US68@SR125 (200023) Status Air Temp Sfc Temp Sub Temp Dew Temp Wind Precip Traffic Updated
Sensor [A]: Atmospheric - 66.0 - - 8.1 1.2 / SE - - 7/4/2015 2:01:23 AM
Sensor [0]: NB US68 Dry - 68.9 - - - - - 7/4/2015 2:01:23 AM
Sensor [1]: SB US68 Dry - 71.6 - - - - - 7/4/2015 2:01:23 AM
25-SR73 South of TR 409 (MM 4.2) (200024) Status Air Temp Sfc Temp Sub Temp Dew Temp Wind Precip Traffic Updated
Sensor [A]: Atmospheric - 63.1 - - 67.6 - - - 7/4/2015 2:36:54 AM
26-SR 32 @ TR 255 Rice Road (MM 14.6) (200025) Status Air Temp Sfc Temp Sub Temp Dew Temp Wind Precip Traffic Updated
Sensor [A]: Atmospheric - 64.0 - - 66.6 - - - 7/4/2015 2:37:05 AM
Sensor [0]: US 35 WB Driving Lane Dry - 67.1 70.7 - - - 6 / 60.3 7/4/2015 2:37:05 AM
Sensor [1]: US 35 EB Driving Lane Dry - 67.1 - - - - 4 / 62.8 7/4/2015 2:37:05 AM
Sensor [2]: SR32 Eastbound Driving Lane Bridgedeck Dry - 67.1 - - - - 0 / 52.8 7/4/2015 2:37:05 AM
Sensor [3]: SR32 Westbound Passing Lane Approach Dry - 65.3 - - - - 0 / 21.7 7/4/2015 2:37:05 AM
27-US52 @ Ice Creek (200026) Status Air Temp Sfc Temp Sub Temp Dew Temp Wind Precip Traffic Updated
Sensor [A]: Atmospheric - 67.6 - - 64.9 - - - 7/4/2015 2:44:45 AM
Sensor [0]: SR52 EB Driving Approach Dry - 71.6 77.0 - - - 0 / 9.9 7/4/2015 2:44:45 AM
Sensor [1]: SR52 WB Driving Bridgedeck Dry - 71.6 - - - - 0 / 9.9 7/4/2015 2:44:45 AM
28-US23 @ SLM 6.5 (200027) Status Air Temp Sfc Temp Sub Temp Dew Temp Wind Precip Traffic Updated
Sensor [A]: Atmospheric - 64.8 - - 64.8 1.2 / NE - - 7/4/2015 2:39:53 AM
Sensor [0]: US23 NB Driving No Report - - - - - - - 7/4/2015 2:39:53 AM
Sensor [1]: US23 SB Driving Dry - 71.4 - - - - - 7/4/2015 2:39:53 AM
29-US 35 @Ross County Garage (MM 16.8) (200028) Status Air Temp Sfc Temp Sub Temp Dew Temp Wind Precip Traffic Updated
Sensor [A]: Atmospheric - 62.8 - - 62.8 1.9 / SW - - 7/4/2015 2:46:06 AM
Sensor [0]: US35 EB Driving Dry - 65.5 73.4 - - - 35 / 62.8 7/4/2015 2:46:06 AM
Sensor [1]: US35 WB Driving Dry - 65.5 - - - - 0 / 47.2 7/4/2015 2:46:06 AM
30-US 23 @Scioto County Garage (MM 9.7) (200029) Status Air Temp Sfc Temp Sub Temp Dew Temp Wind Precip Traffic Updated
Sensor [A]: Atmospheric - 66.0 - - 64.6 - - - 7/4/2015 2:43:07 AM
Sensor [0]: US23 NB Driving Dry - 71.6 - - - - 0 / 9.9 7/4/2015 2:43:07 AM
Sensor [1]: US23 SB Driving Dry - 71.6 78.8 - - - 0 / 9.9 7/4/2015 2:43:07 AM
31-USR 50 MM 17.68 (200030) Status Air Temp Sfc Temp Sub Temp Dew Temp Wind Precip Traffic Updated
Sensor [A]: Atmospheric - 64.9 - - 62.4 1.2 / E - - 7/4/2015 2:42:08 AM
Sensor [1]: US50 WB Driving Dry - 71.6 - - - - - 7/4/2015 2:42:08 AM
32-USR 35 @ SR 160 (200031) Status Air Temp Sfc Temp Sub Temp Dew Temp Wind Precip Traffic Updated
Sensor [A]: Atmospheric - 65.5 - - 63.3 0.6 / NW - - 7/4/2015 2:42:16 AM
Sensor [0]: SR35 NB Driving Dry - 73.4 - - - - - 7/4/2015 2:42:16 AM
33-US33@mm9.2 (200032) Status Air Temp Sfc Temp Sub Temp Dew Temp Wind Precip Traffic Updated
Sensor [A]: Atmospheric - 61.9 - - 61.3 - - - 7/4/2015 2:46:25 AM
Sensor [0]: US33 EB Driving Trace Moisture - 61.7 - - - - - 7/4/2015 2:46:25 AM
34-US33 @ OH7 (200033) Status Air Temp Sfc Temp Sub Temp Dew Temp Wind Precip Traffic Updated
Sensor [A]: Atmospheric - 64.9 - - 69.6 3.1 / W - - 7/4/2015 2:37:57 AM
Sensor [0]: US-33 EB Driving Departure Dry - 68.9 77.0 - - - - 7/4/2015 2:37:57 AM
Sensor [1]: US-33 WB Driving Approach Dry - 68.9 - - - - - 7/4/2015 2:37:57 AM
Sensor [2]: US-33 EB Driving Bridgedeck Dry - 69.8 - - - - - 7/4/2015 2:37:57 AM
35-SR7 @ SLM12.7 (200034) Status Air Temp Sfc Temp Sub Temp Dew Temp Wind Precip Traffic Updated
Sensor [A]: Atmospheric - 68.0 - - 68.7 - Rain / 0.0 - 7/4/2015 2:37:56 AM
Sensor [0]: SR7 NB Driving Lane Wet - 73.4 80.6 - - - - 7/4/2015 2:37:56 AM
Sensor [1]: SR7 SB Driving Lane Wet - 73.4 - - - - - 7/4/2015 2:37:56 AM
36-SR60 @ Monestary Rd (200035) Status Air Temp Sfc Temp Sub Temp Dew Temp Wind Precip Traffic Updated
Sensor [A]: Atmospheric - 63.5 - - - 1.9 / NW - - 7/4/2015 2:37:54 AM
Sensor [0]: SR60 EB Lane Wet - 67.1 76.1 - - - - 7/4/2015 2:37:54 AM
Sensor [1]: SR60 WB Lane Wet - 67.1 - - - - - 7/4/2015 2:37:54 AM
37-SR32@SR160 (200036) Status Air Temp Sfc Temp Sub Temp Dew Temp Wind Precip Traffic Updated
Sensor [A]: Atmospheric - 64.2 - - 62.4 - - - 7/4/2015 2:46:49 AM
Sensor [0]: SR32 EB Driving Dry - 71.6 - - - - - 7/4/2015 2:46:49 AM
Sensor [1]: SR32 WB Driving Bridgedeck Dry - 71.6 - - - - - 7/4/2015 2:46:49 AM
38-SR43@SR9 (200037) Status Air Temp Sfc Temp Sub Temp Dew Temp Wind Precip Traffic Updated
Sensor [A]: Atmospheric - 64.4 - - 61.9 2.5 / N - - 7/4/2015 2:40:44 AM
Sensor [0]: SR43 NB Dry - 73.4 80.6 - - - - 7/4/2015 2:40:44 AM
Sensor [1]: SR9 SB Dry - 73.4 - - - - - 7/4/2015 2:40:44 AM
39-SR11@SR267 (200038) Status Air Temp Sfc Temp Sub Temp Dew Temp Wind Precip Traffic Updated
Sensor [A]: Atmospheric - 64.6 - - 62.8 - - - 7/4/2015 2:42:03 AM
Sensor [0]: SR11 NB Driving Dry - 69.8 77.0 - - - - 7/4/2015 2:42:03 AM
Sensor [1]: SR11 SB Driving Dry - 69.8 - - - - - 7/4/2015 2:42:03 AM
40-Clinton County Garage (200039) Status Air Temp Sfc Temp Sub Temp Dew Temp Wind Precip Traffic Updated
Sensor [A]: Atmospheric - 61.2 - - 68.5 - - - 7/4/2015 2:37:46 AM
41- SR62@SR206 (200042) Status Air Temp Sfc Temp Sub Temp Dew Temp Wind Precip Traffic Updated
Sensor [A]: Atmospheric - 63.5 - - 57.2 2.5 / NW - - 7/4/2015 2:40:41 AM
Sensor [0]: SR62 EB Dry - 63.5 - - - - 3 / 39.8 7/4/2015 2:40:41 AM
Sensor [1]: SR62 WB Dry - 62.6 - - - - 0 / 57.2 7/4/2015 2:40:41 AM
42- SR7@ SLM14.65 (200041) Status Air Temp Sfc Temp Sub Temp Dew Temp Wind Precip Traffic Updated
Sensor [A]: Atmospheric - 67.1 - - 64.9 0.6 / SE - - 7/4/2015 2:40:46 AM
Sensor [0]: SR7 Passing Wet - 69.8 - - - - - 7/4/2015 2:40:46 AM
Sensor [2]: SR7 SB Driving Dry - 71.6 - - - - - 7/4/2015 2:40:46 AM
51-IR 70 West of CR 320 (0.8 MM) (200050) Status Air Temp Sfc Temp Sub Temp Dew Temp Wind Precip Traffic Updated
Sensor [A]: Atmospheric - 63.5 - - 61.5 - - - 7/4/2015 2:40:42 AM
Sensor [0]: IR70 EB Driving Dry - 69.8 75.2 - - - 56 / 62.1 7/4/2015 2:40:42 AM
Sensor [1]: IR70 WB Driving Dry - 68.0 - - - - 60 / 60.3 7/4/2015 2:40:42 AM
52-18 MM MOT/PRE (200051) Status Air Temp Sfc Temp Sub Temp Dew Temp Wind Precip Traffic Updated
Sensor [A]: Atmospheric - 62.1 - - 59.4 3.1 / N - - 7/4/2015 2:40:43 AM
Sensor [0]: IR70 WB Passing Dry - 62.6 - - - - 56 / 57.8 7/4/2015 2:40:43 AM
Sensor [1]: IR70 EB Driving Dry - 68.0 - - - - 0 / 62.1 7/4/2015 2:40:43 AM
Sensor [2]: IR70 WB Driving Dry - 69.8 77.0 - - - 26 / 62.8 7/4/2015 2:40:43 AM
53-CLA-70 @ I675 (200052) Status Air Temp Sfc Temp Sub Temp Dew Temp Wind Precip Traffic Updated
Sensor [A]: Atmospheric - 64.4 - - 61.9 3.1 / NW - - 7/4/2015 2:40:46 AM
Sensor [0]: I675 SB Passing Bridgedeck Dry - 69.8 - - - - 0 / 9.9 7/4/2015 2:40:46 AM
Sensor [1]: I675 SB Passing Departure Dry - 71.6 - - - - 0 / 9.9 7/4/2015 2:40:46 AM
54-IR70 MM 62 (200053) Status Air Temp Sfc Temp Sub Temp Dew Temp Wind Precip Traffic Updated
Sensor [A]: Atmospheric - 61.3 - - 59.5 - - - 7/4/2015 2:48:50 AM
Sensor [0]: I70 EB Driving Dry - 68.0 77.0 - - - 0 / 9.9 7/4/2015 2:48:50 AM
Sensor [1]: I70 WB Passing Dry - 68.0 - - - - 0 / 9.9 7/4/2015 2:48:50 AM
55-IR70 MM 142 (200054) Status Air Temp Sfc Temp Sub Temp Dew Temp Wind Precip Traffic Updated
Sensor [A]: Atmospheric - 62.6 - - 62.6 - - - 7/4/2015 2:40:45 AM
Sensor [0]: IR70 EB Driving Dry - 68.0 75.2 - - - 48 / 64.0 7/4/2015 2:40:45 AM
Sensor [1]: IR70 WB Driving Dry - 64.4 - - - - 35 / 39.8 7/4/2015 2:40:45 AM
Sensor [2]: IR70 EB Passing Dry - 68.0 - - - - 25 / 44.1 7/4/2015 2:40:45 AM
Sensor [3]: IR70 WB Passing Dry - 68.0 - - - - 47 / 62.8 7/4/2015 2:40:45 AM
56-IR70 MM 169 (200055) Status Air Temp Sfc Temp Sub Temp Dew Temp Wind Precip Traffic Updated
Sensor [A]: Atmospheric - 63.7 - - 62.8 0.6 / W - - 7/4/2015 2:12:03 AM
Sensor [0]: IR70 EB Driving Dry - 68.0 75.2 - - - 4 / 18.0 7/4/2015 2:12:03 AM
Sensor [1]: IR70 WB Driving Dry - 75.2 - - - - 25 / 62.8 7/4/2015 2:12:03 AM
57-IR70 MM 198 (200056) Status Air Temp Sfc Temp Sub Temp Dew Temp Wind Precip Traffic Updated
Sensor [A]: Atmospheric - 64.4 - - 63.7 - - - 7/4/2015 2:41:26 AM
Sensor [0]: IR70 EB Driving Dry - 66.2 - - - - 40 / 57.2 7/4/2015 2:41:26 AM
Sensor [1]: IR70 EB Passing Trace Moisture - 65.3 - - - - 1 / 26.7 7/4/2015 2:41:26 AM
Sensor [4]: IR70 WB Driving (West) Dry - 68.0 - - - - - 7/4/2015 2:41:26 AM
58-IR470 MM 6 (200057) Status Air Temp Sfc Temp Sub Temp Dew Temp Wind Precip Traffic Updated
Sensor [A]: Atmospheric - 66.9 - - 66.2 - - - 7/4/2015 2:43:23 AM
Sensor [0]: IR470 EB Driving Dry - 71.6 84.2 - - - 30 / 44.1 7/4/2015 2:43:23 AM
Sensor [1]: IR470 WB Driving Wet - 69.8 - - - - 10 / 64.0 7/4/2015 2:43:23 AM
59- US 127 @ SR 744 (200058) Status Air Temp Sfc Temp Sub Temp Dew Temp Wind Precip Traffic Updated
Sensor [A]: Atmospheric - 61.5 - - 61.5 - - - 7/4/2015 2:41:32 AM
Sensor [0]: US127 NB Bridgedeck Dry - 65.5 - - - - 55 / 64.0 7/4/2015 2:41:32 AM
Sensor [1]: US127 SB Bridgedeck Dry - 64.8 - - - - 31 / 70.8 7/4/2015 2:41:32 AM
60-IR71 MM 62 (200059) Status Air Temp Sfc Temp Sub Temp Dew Temp Wind Precip Traffic Updated
Sensor [A]: Atmospheric - 62.4 - - 60.6 1.9 / NW - - 7/4/2015 2:43:48 AM
Sensor [1]: IR71 SB Center Dry - 62.6 - - - - 0 / 65.2 7/4/2015 2:43:48 AM
Sensor [2]: IR71 NB Driving Dry - 68.0 - - - - 1 / 9.9 7/4/2015 2:43:48 AM
Sensor [3]: IR71 NB Passing Bridgedeck Dry - 66.2 - - - - 0 / 9.9 7/4/2015 2:43:48 AM
61-IR71 MM 79 (200060) Status Air Temp Sfc Temp Sub Temp Dew Temp Wind Precip Traffic Updated
Sensor [A]: Atmospheric - 62.6 - - 59.9 2.5 / NE - - 7/4/2015 2:43:59 AM
Sensor [0]: IR71 NB Driving Bridgedeck Dry - 66.2 68.0 - - - 0 / 9.9 7/4/2015 2:43:59 AM
Sensor [1]: IR71 NB Driving Dry - 68.0 - - - - 0 / 9.9 7/4/2015 2:43:59 AM
62- Cemetary Rd. Over I-270 (200061) Status Air Temp Sfc Temp Sub Temp Dew Temp Wind Precip Traffic Updated
Sensor [A]: Atmospheric - 63.3 - - 58.5 2.5 / N - - 7/4/2015 2:40:34 AM
Sensor [2]: Cemetary Rd WB Passing Dry - 69.8 77.0 - - - 0 / 59.0 7/4/2015 2:40:34 AM
63-IR 71 @ Morrow/Delaware County Line (200062) Status Air Temp Sfc Temp Sub Temp Dew Temp Wind Precip Traffic Updated
Sensor [A]: Atmospheric - 60.3 - - 47.3 6.2 / E - - 4/9/2013 9:12:09 AM
64-I71 MM 158 (200063) Status Air Temp Sfc Temp Sub Temp Dew Temp Wind Precip Traffic Updated
Sensor [A]: Atmospheric - 59.0 - - 54.3 - - - 7/4/2015 2:47:09 AM
Sensor [0]: IR71 NB Driving Dry - 66.2 75.2 - - - 0 / 9.9 7/4/2015 2:47:09 AM
Sensor [1]: IR71 SB Driving Dry - 66.2 - - - - 0 / 9.9 7/4/2015 2:47:09 AM
65-IR71 MM 174 (200064) Status Air Temp Sfc Temp Sub Temp Dew Temp Wind Precip Traffic Updated
Sensor [A]: Atmospheric - 55.8 - - 53.6 - - - 7/4/2015 2:47:31 AM
Sensor [0]: IR71 NB Driving Dry - 59.9 66.2 - - - 5 / 60.9 7/4/2015 2:47:31 AM
Sensor [1]: IR71 SB Center Dry - 66.2 - - - - 0 / 9.9 7/4/2015 2:47:31 AM
66-IR71 MM 195.55 (200065) Status Air Temp Sfc Temp Sub Temp Dew Temp Wind Precip Traffic Updated
Sensor [A]: Atmospheric - 56.3 - - 53.8 - - - 7/4/2015 2:40:37 AM
Sensor [1]: IR71 South Bound Passing Lane Dry - 59.0 - - - - 0 / 54.1 7/4/2015 2:40:37 AM
Sensor [2]: IR71 South Bound Driving Lane Trace Moisture - 68.0 - - - - 0 / 21.7 7/4/2015 2:40:37 AM
67-IR71 MM 209 (200066) Status Air Temp Sfc Temp Sub Temp Dew Temp Wind Precip Traffic Updated
Sensor [A]: Atmospheric - 55.9 - - 52.7 4.3 / NW - - 7/4/2015 2:47:49 AM
Sensor [0]: IR71 NB Driving Dry - 68.0 78.8 - - - 0 / 9.9 7/4/2015 2:47:49 AM
Sensor [1]: IR71 SB Driving Bridgedeck Dry - 66.2 - - - - 0 / 9.9 7/4/2015 2:47:49 AM
68-IR271 @ IR77 (200067) Status Air Temp Sfc Temp Sub Temp Dew Temp Wind Precip Traffic Updated
Sensor [A]: Atmospheric - 59.7 - - 51.1 0.6 / NW - - 7/4/2015 2:48:11 AM
Sensor [0]: I271 SB Passing Bridgedeck Dry - 69.8 - - - - 0 / 9.9 7/4/2015 2:48:11 AM
69-IR275 MM 21 (200068) Status Air Temp Sfc Temp Sub Temp Dew Temp Wind Precip Traffic Updated
Sensor [A]: Atmospheric - 64.9 - - 63.1 - - - 7/4/2015 2:44:09 AM
Sensor [0]: IR275 NB Driving Dry - 69.8 78.8 - - - 0 / 9.9 7/4/2015 2:44:09 AM
Sensor [1]: IR275 SB Driving Dry - 71.6 - - - - 0 / 9.9 7/4/2015 2:44:09 AM
70-IR275 HAM/CLER (200069) Status Air Temp Sfc Temp Sub Temp Dew Temp Wind Precip Traffic Updated
Sensor [A]: Atmospheric - 66.9 - - 64.9 1.2 / NE - - 7/4/2015 2:40:12 AM
Sensor [0]: I275 EB Driving Dry - 73.4 78.8 - - - 0 / 62.1 7/4/2015 2:40:12 AM
Sensor [1]: I275 WB Driving Dry - 73.4 - - - - 0 / 60.9 7/4/2015 2:40:12 AM
71-I675 MONT/GRE (200070) Status Air Temp Sfc Temp Sub Temp Dew Temp Wind Precip Traffic Updated
Sensor [A]: Atmospheric - 63.1 - - 59.9 0.6 / SW - - 7/4/2015 2:42:16 AM
Sensor [0]: I675 NB Driving Dry - 68.0 77.0 - - - 46 / 60.9 7/4/2015 2:42:16 AM
Sensor [1]: I675 SB Driving Dry - 68.0 - - - - 97 / 62.8 7/4/2015 2:42:16 AM
72-18 MM BUT/HAM (200071) Status Air Temp Sfc Temp Sub Temp Dew Temp Wind Precip Traffic Updated
Sensor [A]: Atmospheric - 68.0 - - 63.9 2.5 / W - - 7/4/2015 2:41:33 AM
Sensor [0]: IR75 NB Passing Dry - 73.4 78.8 - - - - 7/4/2015 2:41:33 AM
Sensor [1]: IR75 SB Driving Dry - 73.4 - - - - - 7/4/2015 2:41:33 AM
73-I75mm27.5 SB (200072) Status Air Temp Sfc Temp Sub Temp Dew Temp Wind Precip Traffic Updated
Sensor [A]: Atmospheric - 63.5 - - 62.6 - Rain / 0.0 - 7/4/2015 2:41:33 AM
Sensor [0]: IR75 NB Driving Dry - 69.8 - - - - - 7/4/2015 2:41:33 AM
Sensor [1]: IR75 SB Driving Dry - 68.0 - - - - - 7/4/2015 2:41:33 AM
74-IR75 MM 40 (200073) Status Air Temp Sfc Temp Sub Temp Dew Temp Wind Precip Traffic Updated
Sensor [A]: Atmospheric - 62.8 - - 62.4 - - - 7/4/2015 2:42:25 AM
Sensor [0]: IR75 NB Driving Dry - 68.0 77.0 - - - 26 / 14.3 7/4/2015 2:42:25 AM
Sensor [1]: IR75 SB Driving Dry - 66.2 - - - - 9 / 19.3 7/4/2015 2:42:25 AM
75-SR 16 @ CR 34 W. Carlisle Rd (MM 4.3) (200074) Status Air Temp Sfc Temp Sub Temp Dew Temp Wind Precip Traffic Updated
Sensor [A]: Atmospheric - 62.6 - - 62.2 - - - 7/4/2015 2:41:27 AM
Sensor [0]: SR16 EB Driving Bridgedeck Dry - 69.8 73.4 - - - - 7/4/2015 2:41:27 AM
76-IR75 MM 84 (200075) Status Air Temp Sfc Temp Sub Temp Dew Temp Wind Precip Traffic Updated
Sensor [A]: Atmospheric - 59.7 - - 59.7 - - - 7/4/2015 2:47:26 AM
77-IR75 MM 105 (200076) Status Air Temp Sfc Temp Sub Temp Dew Temp Wind Precip Traffic Updated
Sensor [A]: Atmospheric - 59.2 - - 60.1 - - - 7/4/2015 2:43:22 AM
Sensor [0]: IR75 NB Driving Dry - 68.0 66.6 - - - 0 / 9.9 7/4/2015 2:43:22 AM
Sensor [1]: IR75 SB Driving Dry - 77.0 - - - - 0 / 9.9 7/4/2015 2:43:22 AM
78-IR75 MM 119 (200077) Status Air Temp Sfc Temp Sub Temp Dew Temp Wind Precip Traffic Updated
Sensor [A]: Atmospheric - 58.5 - - 55.4 - - - 7/4/2015 2:43:24 AM
Sensor [0]: IR75 NB Driving Wet - 69.8 68.4 - - - 0 / 9.9 7/4/2015 2:43:24 AM
Sensor [1]: IR75 SB Driving Dry - 69.8 - - - - 0 / 9.9 7/4/2015 2:43:24 AM
79-IR 75 @ Allen/Hancock County Line (200078) Status Air Temp Sfc Temp Sub Temp Dew Temp Wind Precip Traffic Updated
Sensor [A]: Atmospheric - 55.2 - - 52.5 - - - 7/4/2015 2:49:51 AM
Sensor [0]: IR75 NB Driving Dry - 64.4 78.8 - - - 0 / 9.9 7/4/2015 2:49:51 AM
Sensor [1]: IR75 SB Driving Dry - 64.4 - - - - 0 / 9.9 7/4/2015 2:49:51 AM
80-IR 77@ SR 7 Interchange (200079) Status Air Temp Sfc Temp Sub Temp Dew Temp Wind Precip Traffic Updated
Sensor [A]: Atmospheric - 66.0 - - 65.8 0.6 / E - - 7/4/2015 2:42:34 AM
Sensor [0]: I77 SB Driving Lane Wet - 70.7 - - - - - 7/4/2015 2:42:34 AM
81-IR77 MM 16 (200080) Status Air Temp Sfc Temp Sub Temp Dew Temp Wind Precip Traffic Updated
Sensor [A]: Atmospheric - 65.3 - - 65.5 - - - 7/4/2015 2:46:59 AM
Sensor [0]: IR77 SB Driving Dry - 69.4 - - - - - 7/4/2015 2:46:59 AM
82-IR77 MM 36 (200081) Status Air Temp Sfc Temp Sub Temp Dew Temp Wind Precip Traffic Updated
Sensor [A]: Atmospheric - 64.6 - - 64.6 1.9 / N - - 7/4/2015 2:41:59 AM
Sensor [0]: IR77 SB Driving Dry - 66.4 73.4 - - - 27 / 64.0 7/4/2015 2:41:59 AM
Sensor [1]: IR77 NB Driving Dry - - - - - - 0 / 52.8 7/4/2015 2:41:59 AM
83-IR77 MM 59 (200082) Status Air Temp Sfc Temp Sub Temp Dew Temp Wind Precip Traffic Updated
Sensor [A]: Atmospheric - 63.9 - - 62.2 - - - 7/4/2015 2:37:59 AM
Sensor [0]: IR77 NB Driving Dry - 69.8 77.0 - - - 0 / 5.0 7/4/2015 2:37:59 AM
Sensor [1]: IR77 SB Driving Dry - 69.8 - - - - 0 / 5.0 7/4/2015 2:37:59 AM
84-IR 77 @ Stark/Tuscarawas County Line (200083) Status Air Temp Sfc Temp Sub Temp Dew Temp Wind Precip Traffic Updated
Sensor [A]: Atmospheric - 62.2 - - 60.1 1.9 / N - - 7/4/2015 2:43:21 AM
Sensor [0]: IR77 NB Passing Lane Dry - 69.8 77.9 - - - 0 / 52.8 7/4/2015 2:43:21 AM
Sensor [1]: IR77 SB Passing Lane Dry - 68.5 - - - - 0 / 6.8 7/4/2015 2:43:21 AM
85-SR2 @ Huron River (200084) Status Air Temp Sfc Temp Sub Temp Dew Temp Wind Precip Traffic Updated
Sensor [A]: Atmospheric - 56.7 - - 54.3 - - - 7/4/2015 2:38:26 AM
Sensor [0]: SR2 WB Driving Appraoch Dry - 66.2 78.8 - - - 8959 / 154.1 7/4/2015 2:38:26 AM
Sensor [1]: SR2 EB Driving Departure Dry - 66.2 - - - - 1 / 5.0 7/4/2015 2:38:26 AM
86-IR90 @ SR57 (200085) Status Air Temp Sfc Temp Sub Temp Dew Temp Wind Precip Traffic Updated
Sensor [A]: Atmospheric - 59.4 - - 54.9 0.6 / W - - 7/4/2015 2:43:09 AM
Sensor [0]: IR90 EB Driving Dry - 66.2 76.5 - - - 34 / 6.2 7/4/2015 2:43:09 AM
Sensor [1]: IR90 WB Driving Dry - 66.7 - - - - 0 / 5.0 7/4/2015 2:43:09 AM
87-IR90 ATB/LAKE (200086) Status Air Temp Sfc Temp Sub Temp Dew Temp Wind Precip Traffic Updated
Sensor [A]: Atmospheric - 55.2 - - 52.0 0.6 / S - - 7/4/2015 2:38:45 AM
Sensor [0]: I90 EB Passing Dry - 68.0 77.0 - - - 92 / 62.1 7/4/2015 2:38:45 AM
Sensor [1]: I90 EB Driving Dry - 68.0 - - - - 2 / 5.0 7/4/2015 2:38:45 AM
Sensor [2]: I90 WB Passing Dry - 68.0 - - - - 52 / 59.0 7/4/2015 2:38:45 AM
88-IR90 @ SR11 (200087) Status Air Temp Sfc Temp Sub Temp Dew Temp Wind Precip Traffic Updated
Sensor [A]: Atmospheric - 60.6 - - 53.1 1.2 / NE - - 7/4/2015 2:43:38 AM
Sensor [0]: IR90 EB Passing Dry - 70.3 76.1 - - - 0 / 158.4 7/4/2015 2:43:38 AM
Sensor [1]: IR90 WB Passing (Under Construction) Dry - 84.2 - - - - 31 / 65.2 4/28/2015 2:02:22 PM
89-IR90 @ PA Line (200088) Status Air Temp Sfc Temp Sub Temp Dew Temp Wind Precip Traffic Updated
Sensor [A]: Atmospheric - 55.8 - - 54.3 - - - 7/4/2015 2:47:43 AM
Sensor [0]: IR90 EB Driving Bridgedeck Dry - 65.1 65.3 - - - - 7/4/2015 2:47:43 AM
Sensor [1]: IR90 EB Passing Dry - 64.6 - - - - - 7/4/2015 2:47:43 AM
Sensor [2]: IR90 WB Passing Bridgedeck Dry - 66.2 - - - - - 7/4/2015 2:47:43 AM
Sensor [3]: IR90 WB Driving Dry - 66.0 - - - - - 7/4/2015 2:47:43 AM
90-IR80 @ PA Line (200089) Status Air Temp Sfc Temp Sub Temp Dew Temp Wind Precip Traffic Updated
Sensor [A]: Atmospheric - 64.8 - - 62.1 - - - 7/4/2015 2:45:28 AM
Sensor [0]: IR80 EB Driving Dry - 71.2 75.2 - - - 21 / 49.1 7/4/2015 2:45:28 AM
Sensor [1]: IR80 WB Driving Dry - 71.8 - - - - 0 / 47.8 7/4/2015 2:45:28 AM
91-IR76 MAH/POR (200090) Status Air Temp Sfc Temp Sub Temp Dew Temp Wind Precip Traffic Updated
Sensor [A]: Atmospheric - 60.6 - - 53.1 - - - 7/4/2015 2:38:49 AM
Sensor [0]: IR76 EB Passing Dry - 77.0 77.0 - - - 6 / 9.9 7/4/2015 2:38:49 AM
Sensor [1]: IR76 WB Passing Bridgedeck Dry - 69.8 - - - - 22 / 55.9 7/4/2015 2:38:49 AM
Sensor [2]: IR76 EB Driving Dry - 69.8 - - - - 17 / 64.0 7/4/2015 2:38:49 AM
Sensor [3]: IR76 WB Driving Bridgedeck Dry - 71.6 - - - - 43 / 64.0 7/4/2015 2:38:49 AM
92-IR76 POR/SUM (200091) Status Air Temp Sfc Temp Sub Temp Dew Temp Wind Precip Traffic Updated
Sensor [A]: Atmospheric - 60.4 - - 53.6 - - - 7/4/2015 2:40:39 AM
Sensor [1]: IR76 EB Driving Dry - 71.6 - - - - 43 / 5.0 7/4/2015 2:40:39 AM
Sensor [2]: IR76 WB Driving Dry - 69.8 73.4 - - - 0 / 64.0 7/4/2015 2:40:39 AM
94-SR11 ATB/TRUM (200093) Status Air Temp Sfc Temp Sub Temp Dew Temp Wind Precip Traffic Updated
Sensor [A]: Atmospheric - 59.9 - - 56.3 - - - 7/4/2015 2:45:30 AM
Sensor [0]: SR11 NB Driving Dry - 72.1 79.9 - - - 22 / 64.0 7/4/2015 2:45:30 AM
Sensor [1]: SR11 SB Driving Dry - 72.7 - - - - 2 / 9.9 7/4/2015 2:45:30 AM
95-SR11 MAH/COL (200094) Status Air Temp Sfc Temp Sub Temp Dew Temp Wind Precip Traffic Updated
Sensor [A]: Atmospheric - 65.5 - - 64.2 0.6 / NE - - 7/4/2015 2:41:54 AM
Sensor [0]: SR11 NB Driving Dry - 72.7 79.3 - - - 0 / 64.0 7/4/2015 2:41:54 AM
Sensor [1]: SR11 SB Driving Dry - 73.8 - - - - 0 / 9.9 7/4/2015 2:41:54 AM
97-SR315 @ I270 (200096) Status Air Temp Sfc Temp Sub Temp Dew Temp Wind Precip Traffic Updated
Sensor [A]: Atmospheric - 62.1 - - 60.8 1.2 / NE - - 7/4/2015 2:40:10 AM
Sensor [2]: IR Ice Detection Sensor Dry - - - - - - 6 / 60.3 7/4/2015 2:40:10 AM
98-I270 SB Ramp to SR161 EB (200097) Status Air Temp Sfc Temp Sub Temp Dew Temp Wind Precip Traffic Updated
Sensor [A]: Atmospheric - 63.0 - - 59.9 1.9 / NE - - 7/4/2015 2:41:03 AM
Sensor [1]: SR161 WB Driving Dry - 63.5 - - - - 0 / 50.3 7/4/2015 2:41:03 AM
Sensor [3]: I270 SB to SR161 EB Flyover Ramp Dry - 68.0 - - - - 106 / 57.8 7/4/2015 2:41:03 AM
99-US30 @ Dalton (200098) Status Air Temp Sfc Temp Sub Temp Dew Temp Wind Precip Traffic Updated
Sensor [A]: Atmospheric - 58.3 - - 57.7 - - - 7/4/2015 2:41:09 AM
Sensor [0]: US30 EB Driving Dry - 69.6 74.3 - - - 0 / 50.3 7/4/2015 2:41:09 AM
Sensor [1]: US30 WB Driving Bridgedeck Dry - 68.2 - - - - 11 / 57.2 7/4/2015 2:41:09 AM
100-SR225 @ Berlin Reservoir (200099) Status Air Temp Sfc Temp Sub Temp Dew Temp Wind Precip Traffic Updated
Sensor [A]: Atmospheric - 62.4 - - 57.0 0.6 / NE - - 7/4/2015 1:44:19 AM
Sensor [0]: SR225 NB Lane Dry - 32.9 76.6 - - - 0 / 65.2 7/4/2015 1:44:19 AM
Sensor [1]: SR225 SB Bridgedeck Dry - 71.4 - - - - 4 / 9.9 7/4/2015 1:44:19 AM
101-SR45 @ Rock Creek (200100) Status Air Temp Sfc Temp Sub Temp Dew Temp Wind Precip Traffic Updated
Sensor [A]: Atmospheric - 57.2 - - 54.1 - - - 7/4/2015 2:38:50 AM
Sensor [0]: SR45 NB Bridgedeck Dry - 69.8 82.4 - - - 12 / 34.8 7/4/2015 2:38:50 AM
Sensor [1]: SR45 SB Dry - 71.6 - - - - 0 / 39.1 7/4/2015 2:38:50 AM
102-SR 167 / SR 7 @ East Branch Ashtabula River (MM 11.0) (200101) Status Air Temp Sfc Temp Sub Temp Dew Temp Wind Precip Traffic Updated
Sensor [A]: Atmospheric - 55.9 - - 55.2 0.6 / E - - 7/4/2015 2:44:42 AM
Sensor [0]: SR7 NB Dry - 68.5 - - - - 6 / 42.3 7/4/2015 2:44:42 AM
Sensor [1]: SR7 SB Bridgedeck Dry - 68.2 - - - - 0 / 5.0 7/4/2015 2:44:42 AM
103- I-70 @ SR-79 (200102) Status Air Temp Sfc Temp Sub Temp Dew Temp Wind Precip Traffic Updated
Sensor [A]: Atmospheric - 63.0 - - 62.4 - - - 7/4/2015 2:42:07 AM
Sensor [1]: SR79 SB Bridgedeck Dry - 68.0 - - - - 36 / 50.3 7/4/2015 2:42:07 AM
Sensor [3]: IR70 WB Driving Dry - 68.0 - - - - 40 / 51.0 7/4/2015 2:42:07 AM
104-SR 3 KNOX/Ashland (200103) Status Air Temp Sfc Temp Sub Temp Dew Temp Wind Precip Traffic Updated
Sensor [A]: Atmospheric - 58.3 - - 57.0 1.2 / NE - - 7/4/2015 2:42:43 AM
Sensor [0]: SR3 SB Dry - 68.7 78.4 - - - 2 / 52.2 7/4/2015 2:42:43 AM
105-IR70/IR75 (200104) Status Air Temp Sfc Temp Sub Temp Dew Temp Wind Precip Traffic Updated
Sensor [A]: Atmospheric - 63.9 - - 55.8 4.3 / W - - 7/4/2015 2:41:46 AM
Sensor [0]: IR75 NB Driving Dry - 69.8 - - - - 12 / 60.3 7/4/2015 2:41:46 AM
Sensor [1]: IR70 WB Driving Bridgedeck Dry - 68.0 - - - - 46 / 65.2 7/4/2015 2:41:46 AM
106-SR39 @ Sugarcreek (200105) Status Air Temp Sfc Temp Sub Temp Dew Temp Wind Precip Traffic Updated
Sensor [A]: Atmospheric - 61.3 - - 60.1 1.9 / NW - - 7/4/2015 2:41:27 AM
Sensor [0]: SR39 EB Lane Dry - 68.9 - - - - 6 / 51.0 7/4/2015 2:41:27 AM
Sensor [1]: SR39 WB Lane Dry - 69.8 77.2 - - - 131 / 47.8 7/4/2015 2:41:27 AM
107-US250 @ Ulrichsville (200106) Status Air Temp Sfc Temp Sub Temp Dew Temp Wind Precip Traffic Updated
Sensor [A]: Atmospheric - 63.7 - - - - - - 7/4/2015 2:38:00 AM
Sensor [1]: US250 WB Driving Dry - 73.4 - - - - 0 / 5.0 7/4/2015 2:38:00 AM
108-SR 183 @ Minerva / Linden Road NW (MM 7.9) (200107) Status Air Temp Sfc Temp Sub Temp Dew Temp Wind Precip Traffic Updated
Sensor [A]: Atmospheric - 61.9 - - 60.4 - - - 7/4/2015 2:42:59 AM
Sensor [0]: SR183 NB Bridgedeck Dry - 70.3 79.7 - - - 9 / 70.8 7/4/2015 2:42:59 AM
Sensor [1]: SR183 SB Dry - 70.5 - - - - 4 / 9.9 7/4/2015 2:42:59 AM
109-SR 22 @ East of SR 151 at the RR overpass (MM 24.6) (200108) Status Air Temp Sfc Temp Sub Temp Dew Temp Wind Precip Traffic Updated
Sensor [A]: Atmospheric - 64.8 - - 64.2 - - - 7/4/2015 2:38:04 AM
Sensor [0]: SR22E Driving Lane Dry - 66.2 71.6 - - - 19 / 67.1 7/4/2015 2:38:04 AM
Sensor [1]: SR22W Passing Lane Wet - 67.1 - - - - 2 / 73.9 7/4/2015 2:38:04 AM
110-SR7 @ SR213 (200109) Status Air Temp Sfc Temp Sub Temp Dew Temp Wind Precip Traffic Updated
Sensor [A]: Atmospheric - 65.3 - - 65.3 - - - 7/4/2015 2:43:04 AM
Sensor [0]: SR7 NB Driving Wet - 69.1 77.5 - - - 6 / 42.3 7/4/2015 2:43:04 AM
111-I70 MM 114 (200110) Status Air Temp Sfc Temp Sub Temp Dew Temp Wind Precip Traffic Updated
Sensor [A]: Atmospheric - 64.6 - - 63.3 - - - 7/4/2015 2:40:36 AM
Sensor [0]: IR70 WB Passing Dry - 66.2 73.4 - - - 86 / 47.8 7/4/2015 2:40:36 AM
Sensor [1]: IR70 WB Passing Bridgedeck Dry - 68.0 - - - - 71 / 75.8 7/4/2015 2:40:36 AM
112-USR 27 @ 21 MM (200111) Status Air Temp Sfc Temp Sub Temp Dew Temp Wind Precip Traffic Updated
Sensor [A]: Atmospheric - 64.0 - - 62.8 0.6 / N - - 7/4/2015 2:44:23 AM
Sensor [0]: SR27 NB Lane Trace Moisture - 65.3 68.4 - - - 0 / 52.2 7/4/2015 2:44:23 AM
Sensor [1]: SR27 SB Lane Dry - 69.8 - - - - 0 / 9.9 7/4/2015 2:44:23 AM
113-I-275 @ USR 52 (200112) Status Air Temp Sfc Temp Sub Temp Dew Temp Wind Precip Traffic Updated
Sensor [A]: Atmospheric - 69.1 - - 63.9 1.2 / SE - - 7/4/2015 2:40:15 AM
Sensor [0]: I275 SB Driving Bridgedeck Trace Moisture - 71.6 78.8 - - - 28 / 60.3 7/4/2015 2:40:15 AM
Sensor [1]: I275 NB Driving Dry - 75.2 - - - - 35 / 62.8 7/4/2015 2:40:15 AM
114-IR71 @ US36 (38000) Status Air Temp Sfc Temp Sub Temp Dew Temp Wind Precip Traffic Updated
Sensor [A]: Atmospheric - 59.9 - - 55.0 - - - 7/4/2015 2:41:47 AM
Sensor [0]: I71 SB Driving Dry - 60.8 - - - - - 7/4/2015 2:41:47 AM
Sensor [2]: US36 WB Bridge Dry - 66.2 - - - - - 7/4/2015 2:41:47 AM
115-IR71 @ Schrock Road (38001) Status Air Temp Sfc Temp Sub Temp Dew Temp Wind Precip Traffic Updated
Sensor [A]: Atmospheric - 62.8 - - 57.9 3.7 / NW - - 7/4/2015 2:42:03 AM
Sensor [0]: Schrock Rd Approach Dry - 67.8 - - - - - 7/4/2015 2:42:03 AM
Sensor [1]: Schrock Rd Bridgedeck Dry - 66.9 - - - - - 7/4/2015 2:42:03 AM
116-IR70W @ I270 (38004) Status Air Temp Sfc Temp Sub Temp Dew Temp Wind Precip Traffic Updated
Sensor [A]: Atmospheric - - - - - 3.1 / N - - 7/4/2015 2:42:07 AM
Sensor [0]: I-70 EB Drive Error - - - - - - - 7/4/2015 2:42:07 AM
117-IR70 @ SR29 (38005) Status Air Temp Sfc Temp Sub Temp Dew Temp Wind Precip Traffic Updated
Sensor [A]: Atmospheric - 61.5 - - 54.7 2.5 / NW - - 7/4/2015 2:42:21 AM
Sensor [2]: I70 WB Driving Dry - 65.1 - - - - - 7/4/2015 2:42:21 AM
118-IR70/IR71/SR315 (38006) Status Air Temp Sfc Temp Sub Temp Dew Temp Wind Precip Traffic Updated
Sensor [A]: Atmospheric - 65.1 - - 59.0 3.7 / NE - - 7/4/2015 2:37:12 AM
Sensor [0]: I70 WB to I71 SB Ramp Error - - - - - - - 7/4/2015 2:37:12 AM
Sensor [2]: SR315 NB Driving Dry - 69.8 - - - - - 7/4/2015 2:37:12 AM
Sensor [3]: I70 WB Driving Dry - 71.6 - - - - - 7/4/2015 2:37:12 AM
119-IR71S @ I270 (38007) Status Air Temp Sfc Temp Sub Temp Dew Temp Wind Precip Traffic Updated
Sensor [A]: Atmospheric - 33.1 - - 23.2 7.5 / N - - 1/20/2014 7:31:46 AM
Sensor [2]: I270 EB Passing Error - - - - - - - 1/20/2014 7:31:46 AM
120-US33 @ Hamilton Road (38010) Status Air Temp Sfc Temp Sub Temp Dew Temp Wind Precip Traffic Updated
Sensor [A]: Atmospheric - 65.3 - - 54.1 - - - 7/4/2015 2:43:08 AM
Sensor [0]: US33 EB Passing Dry - 69.8 - - - - - 7/4/2015 2:43:08 AM
121-I-670 Over Airport Connector (38014) Status Air Temp Sfc Temp Sub Temp Dew Temp Wind Precip Traffic Updated
Sensor [A]: Atmospheric - 64.6 - - 59.9 4.3 / NW - - 7/4/2015 2:43:22 AM
Sensor [0]: Airport Connector Bridgedeck Dry - 64.6 - - - - - 7/4/2015 2:43:22 AM
Sensor [1]: I670 EB Passing Dry - 65.8 - - - - - 7/4/2015 2:43:22 AM
Sensor [2]: I670 WB Passing Dry - 66.7 - - - - - 7/4/2015 2:43:22 AM
122-Medina Line Rd. Over I-271 (612000) Status Air Temp Sfc Temp Sub Temp Dew Temp Wind Precip Traffic Updated
Sensor [A]: Atmospheric - 54.9 - - 53.4 - - - 7/4/2015 2:50:12 AM
Sensor [0]: SB Bridge Dry - 67.5 - - - - - 7/4/2015 2:50:12 AM
Sensor [1]: SB Road Dry - 71.6 78.8 - - - - 7/4/2015 2:50:12 AM
123-Steels Corner Rd. /Mud Creek (612003) Status Air Temp Sfc Temp Sub Temp Dew Temp Wind Precip Traffic Updated
Sensor [A]: Atmospheric - 57.9 - - 56.5 - - - 7/4/2015 2:40:11 AM
Sensor [0]: WB Bridge Dry - 68.9 - - - - - 7/4/2015 2:40:11 AM
Sensor [1]: WB Road Dry - 73.4 77.0 - - - - 7/4/2015 2:40:11 AM
124-Old Mill Rd. Over I-480 (612004) Status Air Temp Sfc Temp Sub Temp Dew Temp Wind Precip Traffic Updated
Sensor [A]: Atmospheric - 56.8 - - 55.8 - - - 7/4/2015 2:40:13 AM
Sensor [0]: I480 EB Driving Dry - 68.0 - - - - - 7/4/2015 2:40:13 AM
Sensor [1]: I480 WB Driving Dry - 69.8 75.2 - - - - 7/4/2015 2:40:13 AM
Sensor [2]: Old Mill Rd Bridgedeck Dry - 71.6 - - - - - 7/4/2015 2:40:13 AM
125-Ridgewood Rd. Over Rt 21 (612006) Status Air Temp Sfc Temp Sub Temp Dew Temp Wind Precip Traffic Updated
Sensor [A]: Atmospheric - 57.9 - - 56.3 - - - 7/4/2015 2:40:15 AM
Sensor [0]: EB Bridge Deck Dry - 71.6 - - - - - 7/4/2015 2:40:15 AM
126-Killian Rd. Over I-77 (612011) Status Air Temp Sfc Temp Sub Temp Dew Temp Wind Precip Traffic Updated
Sensor [A]: Atmospheric - 62.6 - - 53.8 3.7 / N - - 7/4/2015 2:40:18 AM
Sensor [0]: EB Bridge Dry - 69.4 82.9 - - - - 7/4/2015 2:40:18 AM
127-US 6 Williams County (582000) Status Air Temp Sfc Temp Sub Temp Dew Temp Wind Precip Traffic Updated
Sensor [A]: Atmospheric - 55.6 - - - - - - 7/4/2015 2:40:39 AM
Sensor [0]: US-6 EB Lane Dry - 62.6 - - - - 1 / 57.2 7/4/2015 2:40:39 AM
Sensor [2]: US6 EB Error - 66.7 79.7 - - - - 7/4/2015 2:40:39 AM
128-US 20 @ SR 49 (582001) Status Air Temp Sfc Temp Sub Temp Dew Temp Wind Precip Traffic Updated
Sensor [A]: Atmospheric - 55.9 - - 54.5 - - - 7/4/2015 2:40:42 AM
Sensor [0]: US-20 EB Dry - 61.7 - - - - - 7/4/2015 2:40:42 AM
129-US 20 @ ALT US 20 (582002) Status Air Temp Sfc Temp Sub Temp Dew Temp Wind Precip Traffic Updated
Sensor [A]: Atmospheric - 55.6 - - 55.6 / Unknown - - 7/3/2015 5:50:23 AM
130-US 20A @ SLM 2.5 Fulton (582003) Status Air Temp Sfc Temp Sub Temp Dew Temp Wind Precip Traffic Updated
Sensor [A]: Atmospheric - 58.6 - - 2.7 0.6 / NE - - 7/4/2015 2:41:07 AM
Sensor [0]: US-20 EB Deck Error - - - - - - - 7/4/2015 2:41:07 AM
Sensor [1]: US-20 EB Approach Dry - 69.4 - - - - - 7/4/2015 2:41:07 AM
131-US 20 @ CR19 and Bean Creek (MM 9.0) (582004) Status Air Temp Sfc Temp Sub Temp Dew Temp Wind Precip Traffic Updated
Sensor [A]: Atmospheric - 54.9 - - - 2.5 / N Rain / 0.0 - 7/4/2015 2:41:27 AM
Sensor [0]: US-20 WB Deck Dry - 65.3 - - - - - 7/4/2015 2:41:27 AM
Sensor [1]: US-20 EB Approach Error - - - - - - - 7/4/2015 2:41:27 AM
132-SR 64 @ County Road N (MM 6.4) (582005) Status Air Temp Sfc Temp Sub Temp Dew Temp Wind Precip Traffic Updated
Sensor [A]: Atmospheric - 53.8 - - 53.4 3.1 / W - - 7/4/2015 2:41:35 AM
133-US 6 @ SLM .5 (582006) Status Air Temp Sfc Temp Sub Temp Dew Temp Wind Precip Traffic Updated
Sensor [A]: Atmospheric - 54.0 - - 53.6 1.2 / NW - - 7/4/2015 2:41:44 AM
Sensor [0]: US-6 WB Dry - 65.8 63.5 - - - - 7/4/2015 2:41:44 AM
134-SR 108 @ SLM .5 (582007) Status Air Temp Sfc Temp Sub Temp Dew Temp Wind Precip Traffic Updated
Sensor [A]: Atmospheric - 54.5 - - 53.4 1.2 / NW - - 7/4/2015 2:50:12 AM
135-US Rt 6 @ Maumee River (582008) Status Air Temp Sfc Temp Sub Temp Dew Temp Wind Precip Traffic Updated
Sensor [A]: Atmospheric - 57.2 - - 57.2 - - - 7/4/2015 2:40:12 AM
Sensor [0]: US-6 EB Deck Error - 63.1 - - - - - 7/4/2015 2:40:12 AM
Sensor [1]: US-6 WB Deck Error - - - - - - - 7/4/2015 2:40:12 AM
136-Rt 65 South Henry County (582009) Status Air Temp Sfc Temp Sub Temp Dew Temp Wind Precip Traffic Updated
Sensor [A]: Atmospheric - 52.7 - - 50.5 1.9 / W - - 7/4/2015 2:40:14 AM
Sensor [0]: SR-65 NB Dry - 57.2 - - - - - 7/4/2015 2:40:14 AM
137-SR 64 @ County Road N (MM 6.4) (582010) Status Air Temp Sfc Temp Sub Temp Dew Temp Wind Precip Traffic Updated
Sensor [A]: Atmospheric - 52.7 - - 52.2 - - - 7/4/2015 2:40:16 AM
Sensor [0]: SR-64 EB Approach Error - - - - - - - 7/4/2015 2:40:16 AM
Sensor [1]: SR-64 EB @ RPU Dry - 66.2 - - - - - 7/4/2015 2:40:16 AM
138-SR 295 @ Maumee River (582011) Status Air Temp Sfc Temp Sub Temp Dew Temp Wind Precip Traffic Updated
Sensor [A]: Atmospheric - 55.6 - - 55.6 1.2 / N - - 7/4/2015 2:40:18 AM
Sensor [0]: SR-578 SB Maumee River Dry - 64.8 80.8 - - - - 7/4/2015 2:40:18 AM
Sensor [1]: SR-578 SB Dry - 66.7 - - - - - 7/4/2015 2:40:18 AM
139-I-80 & I-475 Lucas ***Under Construction*** (582012) Status Air Temp Sfc Temp Sub Temp Dew Temp Wind Precip Traffic Updated
Sensor [A]: Atmospheric - 72.1 - - 71.6 1.9 / SW - - 10/3/2013 12:40:42 PM
Sensor [0]: I-475 NB Deck Dry - 77.0 - - - - - 10/3/2013 12:40:42 PM
Sensor [1]: I-475 SB Approach Error - - - - - - - 10/3/2013 12:40:42 PM
140-IR 475 @ US 23 Split ***Under Construction*** (582013) Status Air Temp Sfc Temp Sub Temp Dew Temp Wind Precip Traffic Updated
Sensor [A]: Atmospheric - 32.5 - - 18.7 - - - 7/4/2015 2:40:39 AM
141-IR 75 @ SLM 4.9 475 Split (582014) Status Air Temp Sfc Temp Sub Temp Dew Temp Wind Precip Traffic Updated
Sensor [A]: Atmospheric - 67.5 - - 62.4 5.6 / SE - - 6/17/2015 7:10:09 AM
142 - I-280 @ Veterans Glass City Skyway (VGCS) (582016) Status Air Temp Sfc Temp Sub Temp Dew Temp Wind Precip Traffic Updated
Sensor [A]: Atmospheric - 61.9 - - 52.2 4.3 / W - - 7/4/2015 2:40:33 AM
Sensor [1]: NB I-280 Center Lane Dry - 60.8 - - - - 16 / 57.2 7/4/2015 2:40:33 AM
Sensor [4]: SB I-280 Center Lane Dry - 60.1 - - - - 6 / 47.8 7/4/2015 2:40:33 AM
143-SR 2 @ MP 31.8 Lucas (582017) Status Air Temp Sfc Temp Sub Temp Dew Temp Wind Precip Traffic Updated
Sensor [A]: Atmospheric - 57.0 - - 54.5 0.6 / W - - 7/4/2015 2:40:36 AM
Sensor [0]: SR-2 EB Deck Dry - 59.0 - - - - - 7/4/2015 2:40:36 AM
144-IR 75 & Eagleville Rd. (582018) Status Air Temp Sfc Temp Sub Temp Dew Temp Wind Precip Traffic Updated
Sensor [A]: Atmospheric - 76.6 - - 63.0 4.3 / NE - - 8/18/2014 12:00:17 PM
Sensor [0]: I-75 NB Deck Error - - - - - - - 8/18/2014 12:00:17 PM
Sensor [1]: I-75 SB Deck Error - - - - - - - 8/18/2014 12:00:17 PM
145-IR 75 @ SLM 18.36 Wood (582019) Status Air Temp Sfc Temp Sub Temp Dew Temp Wind Precip Traffic Updated
Sensor [A]: Atmospheric - 80.8 - - 54.1 2.5 / E - - 8/7/2014 1:00:20 PM
Sensor [0]: I-75 NB Approach Error - 112.6 - - - - - 8/7/2014 1:00:20 PM
Sensor [1]: I-75 SB Deck Dry - 108.3 - - - - - 8/7/2014 1:00:20 PM
146-I-75 @ I-475 Wood ***Under Construction*** (582020) Status Air Temp Sfc Temp Sub Temp Dew Temp Wind Precip Traffic Updated
Sensor [A]: Atmospheric - 57.7 - - 36.9 2.5 / NW - - 7/4/2015 2:40:15 AM
147-I-75 @ I-80 Wood County (582021) Status Air Temp Sfc Temp Sub Temp Dew Temp Wind Precip Traffic Updated
Sensor [A]: Atmospheric - 58.3 - - 58.3 2.5 / NW - - 7/4/2015 2:40:17 AM
Sensor [0]: I-75 NB Deck Trace Moisture - 62.8 - - - - - 7/4/2015 2:40:17 AM
Sensor [1]: I-75 SB Deck Error - - - - - - - 7/4/2015 2:40:17 AM
148-US-6 @ Rt. 23 (582022) Status Air Temp Sfc Temp Sub Temp Dew Temp Wind Precip Traffic Updated
Sensor [A]: Atmospheric - 54.3 - - - - - - 7/4/2015 2:40:19 AM
Sensor [0]: US-6 EB Dry - 68.0 - - - - 0 / 9.9 7/4/2015 2:40:19 AM
Sensor [1]: US-23 NB Dry - 68.0 - - - - 0 / 9.9 7/4/2015 2:40:19 AM
149-US-20 @ Lemoyne Rd. (582023) Status Air Temp Sfc Temp Sub Temp Dew Temp Wind Precip Traffic Updated
Sensor [A]: Atmospheric - 66.0 - - 65.3 1.9 / W - - 7/4/2015 2:40:22 AM
Sensor [0]: US-20 EB Departure Dry - 59.0 - - - - 0 / 42.3 7/4/2015 2:40:22 AM
150-IR 280 @ SR 420 and CR 308 Libbey Rd (582024) Status Air Temp Sfc Temp Sub Temp Dew Temp Wind Precip Traffic Updated
Sensor [A]: Atmospheric - 56.7 - - 52.7 1.9 / W - - 7/4/2015 2:40:26 AM
151-SR 2 @ Portage River Bridge (582025) Status Air Temp Sfc Temp Sub Temp Dew Temp Wind Precip Traffic Updated
Sensor [A]: Atmospheric - 57.7 - - 55.9 0.6 / W - - 7/4/2015 2:40:34 AM
Sensor [0]: SR-2 EB Departure Dry - 65.7 79.7 - - - - 7/4/2015 2:40:34 AM
Sensor [1]: SR-2 WB Deck Error - - - - - - - 7/4/2015 2:40:34 AM
152-SR-2@28.5 Bay Br. (582026) Status Air Temp Sfc Temp Sub Temp Dew Temp Wind Precip Traffic Updated
Sensor [A]: Atmospheric - 64.4 - - 64.2 - - - 7/4/2015 2:40:36 AM
Sensor [3]: SR2 EB Driving Lane - Bridge Deck Dry - 60.8 - - - - 0 / 0.0 7/4/2015 2:40:36 AM
153-US-20 @ Sugar Creek (582027) Status Air Temp Sfc Temp Sub Temp Dew Temp Wind Precip Traffic Updated
Sensor [A]: Atmospheric - 52.7 - - 52.3 - - - 7/4/2015 2:50:11 AM
Sensor [0]: US-20 EB Driving Dry - 56.3 67.1 - - - 1 / 52.8 7/4/2015 2:50:11 AM
Sensor [1]: US-20 WB Passing Dry - 57.2 - - - - 0 / 0.0 7/4/2015 2:50:11 AM
Sensor [2]: US-20 EB Driving BridgeDeck Dry - 57.2 - - - - 0 / 0.0 7/4/2015 2:50:11 AM
154-US-6 @ Sandusky River Br (582028) Status Air Temp Sfc Temp Sub Temp Dew Temp Wind Precip Traffic Updated
Sensor [A]: Atmospheric - 54.7 - - 54.7 1.9 / SW - - 7/4/2015 2:40:13 AM
Sensor [0]: US-6 EB Approach Dry - 63.9 - - - - - 7/4/2015 2:40:13 AM
Sensor [1]: US-6 WB Deck Dry - 62.8 - - - - - 7/4/2015 2:40:13 AM
155-US 6 @ Pickeral Creek (582029) Status Air Temp Sfc Temp Sub Temp Dew Temp Wind Precip Traffic Updated
Sensor [A]: Atmospheric - 34.5 - - 34.0 1.2 / SE - - 7/4/2015 2:40:16 AM
Sensor [0]: US-6 WB Departure Error - - - - - - - 7/4/2015 2:40:16 AM
Sensor [1]: US-6 WB Deck Error - 43.2 - - - - - 7/4/2015 2:40:16 AM
156-CR 296 & US 20 MP 31.0 (582030) Status Air Temp Sfc Temp Sub Temp Dew Temp Wind Precip Traffic Updated
Sensor [A]: Atmospheric - 56.3 - - 56.3 1.9 / W - - 7/4/2015 2:40:18 AM
Sensor [0]: US-20 WB Dry - 65.3 80.8 - - - - 7/4/2015 2:40:18 AM
157-US 23 @ MP 5.5 Seneca (582031) Status Air Temp Sfc Temp Sub Temp Dew Temp Wind Precip Traffic Updated
Sensor [A]: Atmospheric - 55.2 - - 53.4 - - - 7/4/2015 2:40:19 AM
Sensor [0]: US-23 NB Dry - 64.4 - - - - - 7/4/2015 2:40:19 AM
158-SR 12 @ Mp 7.0 Seneca (582032) Status Air Temp Sfc Temp Sub Temp Dew Temp Wind Precip Traffic Updated
Sensor [A]: Atmospheric - 52.5 - - 51.6 2.5 / SW - - 7/4/2015 2:40:21 AM
Sensor [0]: SR-12 WB Dry - 57.2 - - - - - 7/4/2015 2:40:21 AM
159-US 224 @ SR 53 Seneca (582033) Status Air Temp Sfc Temp Sub Temp Dew Temp Wind Precip Traffic Updated
Sensor [A]: Atmospheric - 55.4 - - 54.0 - - - 7/4/2015 2:40:24 AM
Sensor [0]: SR-224 EB Bridge Deck Dry - 59.0 - - - - - 7/4/2015 2:40:24 AM
Sensor [1]: US-224 EB Approach Dry - 59.0 - - - - - 7/4/2015 2:40:24 AM
160-SR 4 @ Aichholz Ditch near CR 8 (MM 2.4) (582034) Status Air Temp Sfc Temp Sub Temp Dew Temp Wind Precip Traffic Updated
Sensor [A]: Atmospheric - 55.0 - - 52.2 1.9 / N - - 7/4/2015 2:40:27 AM
Sensor [0]: SR-4 SB Deck Dry - 69.8 - - - - 0 / 9.9 7/4/2015 2:40:27 AM
Sensor [1]: SR-4 SB Departure Dry - 69.8 66.7 - - - 1 / 9.9 7/4/2015 2:40:27 AM
161-I-90 @ SR-252 (562000) Status Air Temp Sfc Temp Sub Temp Dew Temp Wind Precip Traffic Updated
Sensor [A]: Atmospheric - 61.2 - - 59.0 1.2 / W - - 7/4/2015 2:50:11 AM
Sensor [1]: I-90 WB N2 Lane Dry - 69.8 - - - - - 7/4/2015 2:50:11 AM
162-I-90 @ Abbey Rd. (562001) Status Air Temp Sfc Temp Sub Temp Dew Temp Wind Precip Traffic Updated
Sensor [A]: Atmospheric - - - - - / Unknown - - -
Sensor [0]: I-90 EB N3 Lane Wet - 74.7 82.2 - - - - 8/21/2011 12:10:14 AM
Sensor [2]: I-90 WB N3 Lane Bridge Wet - 71.8 - - - - - 8/21/2011 12:10:14 AM
163-I-90 @ E. 140th (562002) Status Air Temp Sfc Temp Sub Temp Dew Temp Wind Precip Traffic Updated
Sensor [A]: Atmospheric - 60.4 - - 59.4 - - - 7/4/2015 2:40:34 AM
Sensor [0]: I-90 WB N3 Lane Dry - 69.8 - - - - - 7/4/2015 2:40:34 AM
Sensor [1]: I-90 WB N3 Lane Bridge Dry - 65.5 - - - - - 7/4/2015 2:40:34 AM
164-I-271 @ I-90 (562003) Status Air Temp Sfc Temp Sub Temp Dew Temp Wind Precip Traffic Updated
Sensor [A]: Atmospheric - 59.9 - - 59.9 - - - 7/4/2015 2:40:36 AM
Sensor [0]: I-271 NB TG I-90 EB Dry - 63.3 - - - - - 7/4/2015 2:40:36 AM
Sensor [1]: I-90 EB N2 Lane Bridge Dry - 68.0 - - - - - 7/4/2015 2:40:36 AM
Sensor [2]: I-271 NB TG I-90 WB Bridge Dry - 64.4 - - - - - 7/4/2015 2:40:36 AM
Sensor [3]: I-271 NB TG I-90 WB Dry - 64.8 75.2 - - - - 7/4/2015 2:40:36 AM
165-I-480 @ SR-10 (562004) Status Air Temp Sfc Temp Sub Temp Dew Temp Wind Precip Traffic Updated
Sensor [A]: Atmospheric - 57.0 - - 56.5 - - - 7/4/2015 2:40:37 AM
Sensor [0]: I-480 EB N2 Lane Bridge Dry - 63.5 - - - - - 7/4/2015 2:40:37 AM
Sensor [1]: I-480 WB N2 Lane Bridge Trace Moisture - 63.3 - - - - - 7/4/2015 2:40:37 AM
166-I-71 @ Snow Rd. (562005) Status Air Temp Sfc Temp Sub Temp Dew Temp Wind Precip Traffic Updated
Sensor [A]: Atmospheric - 59.2 - - 58.1 - - - 7/4/2015 2:40:39 AM
Sensor [0]: I-71 NB N3 Lane Bridge Dry - 65.7 - - - - - 7/4/2015 2:40:39 AM
Sensor [1]: I-71 SB N3 Lane Bridge Dry - 65.5 - - - - - 7/4/2015 2:40:39 AM
Sensor [2]: I-71 NB N1 Lane Departure Dry - 68.0 - - - - - 7/4/2015 2:40:39 AM
167-I-77 @ I-480 (562006) Status Air Temp Sfc Temp Sub Temp Dew Temp Wind Precip Traffic Updated
Sensor [A]: Atmospheric - 59.9 - - 59.9 1.9 / S - - 7/4/2015 2:40:42 AM
Sensor [0]: I-77 NB N2L Br @ SR-17 Error - - - - - - - 7/4/2015 2:40:42 AM
Sensor [1]: I-77 SB N2L Br @ SR-17 Error - - - - - - - 7/4/2015 2:40:42 AM
Sensor [3]: I-77 NB RL Br over I-480 Dry - 61.7 - - - - - 7/4/2015 2:40:42 AM
168-I-480 N @ Miles Rd. (562007) Status Air Temp Sfc Temp Sub Temp Dew Temp Wind Precip Traffic Updated
Sensor [A]: Atmospheric - 58.8 - - 54.7 - - - 7/4/2015 2:40:04 AM
Sensor [0]: I-480 N WB N2 Lane Dry - 69.8 - - - - - 7/4/2015 2:40:04 AM
Sensor [1]: I-480 N WB N2 Lane Br Dry - 65.7 - - - - - 7/4/2015 2:40:04 AM
Sensor [2]: I-480 EB N2 Lane Br Dry - 69.8 - - - - - 7/4/2015 2:40:04 AM
169-I-271 @ US-322 (562008) Status Air Temp Sfc Temp Sub Temp Dew Temp Wind Precip Traffic Updated
Sensor [A]: Atmospheric - 59.7 - - 56.8 - - - 7/4/2015 2:40:10 AM
Sensor [0]: I-271 SB N2 Lane Br Dry - 69.8 - - - - - 7/4/2015 2:40:10 AM
Sensor [1]: I-271 SB N2 Lane Dry - 69.8 - - - - - 7/4/2015 2:40:10 AM
Sensor [2]: I-271 NB N2 Lane Br Dry - 69.8 - - - - - 7/4/2015 2:40:10 AM
Sensor [3]: I-271 NB N2 Lane Dry - 63.3 - - - - - 7/4/2015 2:40:10 AM
170-I-71 @ Drake Rd. (562009) Status Air Temp Sfc Temp Sub Temp Dew Temp Wind Precip Traffic Updated
Sensor [A]: Atmospheric - 57.0 - - 55.4 - - - 7/4/2015 2:40:13 AM
Sensor [0]: I-71 NB N2 Lane Dry - 64.9 79.5 - - - - 7/4/2015 2:40:13 AM
Sensor [1]: I-71 NB N2 Lane Br Dry - 64.6 - - - - - 7/4/2015 2:40:13 AM
Sensor [2]: I-71 SB N2 Lane Br Dry - 63.0 - - - - - 7/4/2015 2:40:13 AM
171-I-77 @ SR-82 (562010) Status Air Temp Sfc Temp Sub Temp Dew Temp Wind Precip Traffic Updated
Sensor [A]: Atmospheric - 57.2 - - 55.9 0.6 / NW - - 7/4/2015 2:40:15 AM
Sensor [0]: I-77 NB N2 Lane Br Dry - 60.8 - - - - - 7/4/2015 2:40:15 AM
Sensor [1]: I-77 SB N2 Lane Br Dry - 60.8 - - - - - 7/4/2015 2:40:15 AM
172-US-422 @ Chagrin Blvd. (562011) Status Air Temp Sfc Temp Sub Temp Dew Temp Wind Precip Traffic Updated
Sensor [A]: Atmospheric - 56.8 - - 54.3 - - - 7/4/2015 2:40:20 AM
Sensor [0]: US-422 WB N2 Lane Error - - - - - - - 7/4/2015 2:40:20 AM
Sensor [1]: US-422 WB N2 Lane Br Dry - 68.0 - - - - - 7/4/2015 2:40:20 AM
Sensor [2]: US-422 EB N2 Lane Br Dry - 64.4 - - - - - 7/4/2015 2:40:20 AM
173-US-422 @ SR-44 (562012) Status Air Temp Sfc Temp Sub Temp Dew Temp Wind Precip Traffic Updated
Sensor [A]: Atmospheric - 61.0 - - 51.8 1.2 / NW - - 7/4/2015 2:40:22 AM
Sensor [0]: US-422 EB N2 Lane Bridge Dry - 71.6 - - - - - 7/4/2015 2:40:22 AM
174- SR-528 @SR-87 (562013) Status Air Temp Sfc Temp Sub Temp Dew Temp Wind Precip Traffic Updated
Sensor [A]: Atmospheric - 60.4 - - 59.7 2.5 / N - - 7/4/2015 2:50:12 AM
Sensor [0]: SR528 NB Dry - 75.2 - - - - - 7/4/2015 2:50:12 AM
Sensor [1]: SR87 WB Dry - 73.4 - - - - - 7/4/2015 2:50:12 AM
175-SR-44 @ Mentor Rd. (562014) Status Air Temp Sfc Temp Sub Temp Dew Temp Wind Precip Traffic Updated
Sensor [A]: Atmospheric - 56.7 - - 56.7 - - - 7/4/2015 2:40:05 AM
Sensor [0]: SR44 NB Dry - 69.8 78.8 - - - - 7/4/2015 2:40:05 AM
176-SR-528 @ SR-166 (562015) Status Air Temp Sfc Temp Sub Temp Dew Temp Wind Precip Traffic Updated
Sensor [A]: Atmospheric - 61.0 - - 53.6 - - - 7/4/2015 2:40:11 AM
Sensor [0]: SR-528 SB N of SR-166 Dry - 73.4 - - - - - 7/4/2015 2:40:11 AM
Sensor [1]: SR-166 WB W of SR-528 Dry - 66.2 - - - - - 7/4/2015 2:40:11 AM
177-I-90 @ Hermitage Rd. (562016) Status Air Temp Sfc Temp Sub Temp Dew Temp Wind Precip Traffic Updated
Sensor [A]: Atmospheric - 55.0 - - 55.0 - - - 7/4/2015 2:40:13 AM
Sensor [0]: I-90 WB N2 Lane Br Dry - 64.4 - - - - - 7/4/2015 2:40:13 AM
Sensor [1]: I-90 EB N2 Lane Br Dry - 66.2 - - - - - 7/4/2015 2:40:13 AM
Sensor [2]: I90 EB Driving Lane Dry - 64.4 - - - - - 7/4/2015 2:40:13 AM
178-I-90 @ Paine Rd. (562017) Status Air Temp Sfc Temp Sub Temp Dew Temp Wind Precip Traffic Updated
Sensor [A]: Atmospheric - 56.3 - - 56.3 - - - 7/4/2015 2:40:16 AM
Sensor [0]: I-90 WB N2 Lane Br Dry - 64.4 - - - - - 7/4/2015 2:40:16 AM
Sensor [1]: I-90 EB N2 Lane Br Dry - 66.2 - - - - - 7/4/2015 2:40:16 AM
Sensor [2]: I90 EB Driving Lane Dry - 66.2 77.0 - - - - 7/4/2015 2:40:16 AM
179-US-20 @ Parmly Rd. (562018) Status Air Temp Sfc Temp Sub Temp Dew Temp Wind Precip Traffic Updated
Sensor [A]: Atmospheric - 56.3 - - 56.3 - - - 7/4/2015 2:40:18 AM
Sensor [0]: US-20 WB N2 Lane Wet - 60.8 - - - - - 7/4/2015 2:40:18 AM
180-I270 @ US33 (38015) Status Air Temp Sfc Temp Sub Temp Dew Temp Wind Precip Traffic Updated
Sensor [A]: Atmospheric - 61.7 - - - 3.1 / N - - 7/4/2015 2:40:06 AM
181-US 32 @ CR 16 Union Hill Rd (MM 24.8) (200180) Status Air Temp Sfc Temp Sub Temp Dew Temp Wind Precip Traffic Updated
Sensor [A]: Atmospheric - 64.0 - - 63.9 1.2 / W - - 7/4/2015 2:43:24 AM
Sensor [0]: US32 EB Driving Dry - 73.4 - - - - 1 / 9.9 7/4/2015 2:43:24 AM
Sensor [1]: US32 WB Driving Dry - 71.6 - - - - 4 / 9.9 7/4/2015 2:43:24 AM
182-I71 @ SR665 Grove City Outpost (200181) Status Air Temp Sfc Temp Sub Temp Dew Temp Wind Precip Traffic Updated
Sensor [A]: Atmospheric - 63.3 - - 61.9 - - - 7/4/2015 2:45:48 AM
183-US30 @ SR68 (200182) Status Air Temp Sfc Temp Sub Temp Dew Temp Wind Precip Traffic Updated
Sensor [A]: Atmospheric - 57.9 - - 53.1 3.7 / N - - 7/4/2015 2:50:12 AM
Sensor [0]: US30 EB Driving Dry - 59.9 - - - - - 7/4/2015 2:50:12 AM
Sensor [1]: US30 WB Driving Bridgedeck Dry - 64.4 - - - - - 7/4/2015 2:50:12 AM
184-IR 71 @ Stewart Rd (MM 10) (80000) Status Air Temp Sfc Temp Sub Temp Dew Temp Wind Precip Traffic Updated
Sensor [A]: Atmospheric - 68.5 - - 64.6 0.6 / NW - - 7/4/2015 2:40:24 AM
Sensor [0]: I71 NB Driving Dry - 75.2 - - - - - 7/4/2015 2:40:24 AM
Sensor [1]: I71 NB Passing Dry - 75.2 - - - - - 7/4/2015 2:40:24 AM
185 - SR235 @ SR67 (80001) Status Air Temp Sfc Temp Sub Temp Dew Temp Wind Precip Traffic Updated
Sensor [A]: Atmospheric - 58.8 - - - 2.5 / E - - 7/4/2015 2:40:26 AM
Sensor [0]: SR-67 EB Dry - 73.4 - - - - - 7/4/2015 2:40:26 AM
186-SR49 @ SR81 (200185) Status Air Temp Sfc Temp Sub Temp Dew Temp Wind Precip Traffic Updated
Sensor [A]: Atmospheric - 59.7 - - 64.8 - - - 7/4/2015 2:37:23 AM
Sensor [0]: SR-81 EB Approach Dry - 62.6 - - - - - 7/4/2015 2:37:23 AM
Sensor [1]: SR-81 EB Bridgedeck Dry - 69.8 - - - - - 7/4/2015 2:37:23 AM
187-SR15 @ SR613 (200186) Status Air Temp Sfc Temp Sub Temp Dew Temp Wind Precip Traffic Updated
Sensor [A]: Atmospheric - 55.4 - - 54.1 - - - 7/4/2015 2:39:10 AM
Sensor [0]: SR15 NB Lane Dry - 67.1 - - - - - 7/4/2015 2:39:10 AM
188-SR2 @ INDIANA LINE (200187) Status Air Temp Sfc Temp Sub Temp Dew Temp Wind Precip Traffic Updated
Sensor [A]: Atmospheric - 55.8 - - 55.4 1.2 / N - - 7/4/2015 2:39:56 AM
Sensor [0]: SR2 EB Lane Dry - 68.9 - - - - - 7/4/2015 2:39:56 AM